sensor_id;sensor_type;location;lat;lon;timestamp;P1;durP1;ratioP1;P2;durP2;ratioP2
6077;SDS011;3067;49.470;10.394;2022-12-07T00:00:55;10.43;;;7.07;;
6077;SDS011;3067;49.470;10.394;2022-12-07T00:03:22;9.40;;;7.40;;
6077;SDS011;3067;49.470;10.394;2022-12-07T00:05:50;10.07;;;7.10;;
6077;SDS011;3067;49.470;10.394;2022-12-07T00:08:17;10.20;;;7.27;;
6077;SDS011;3067;49.470;10.394;2022-12-07T00:10:46;11.37;;;7.60;;
6077;SDS011;3067;49.470;10.394;2022-12-07T00:13:13;11.00;;;7.00;;
6077;SDS011;3067;49.470;10.394;2022-12-07T00:15:40;11.07;;;6.97;;
6077;SDS011;3067;49.470;10.394;2022-12-07T00:18:08;9.07;;;7.17;;
6077;SDS011;3067;49.470;10.394;2022-12-07T00:20:35;9.53;;;6.30;;
6077;SDS011;3067;49.470;10.394;2022-12-07T00:23:02;8.87;;;6.90;;
6077;SDS011;3067;49.470;10.394;2022-12-07T00:25:29;9.27;;;6.90;;
6077;SDS011;3067;49.470;10.394;2022-12-07T00:27:58;11.90;;;8.10;;
6077;SDS011;3067;49.470;10.394;2022-12-07T00:30:25;9.77;;;7.17;;
6077;SDS011;3067;49.470;10.394;2022-12-07T00:32:53;12.97;;;6.73;;
6077;SDS011;3067;49.470;10.394;2022-12-07T00:35:20;7.70;;;6.50;;
6077;SDS011;3067;49.470;10.394;2022-12-07T00:37:47;8.90;;;6.77;;
6077;SDS011;3067;49.470;10.394;2022-12-07T00:40:15;10.50;;;6.53;;
6077;SDS011;3067;49.470;10.394;2022-12-07T00:42:42;9.37;;;6.50;;
6077;SDS011;3067;49.470;10.394;2022-12-07T00:45:11;11.00;;;7.27;;
6077;SDS011;3067;49.470;10.394;2022-12-07T00:47:38;10.50;;;7.20;;
6077;SDS011;3067;49.470;10.394;2022-12-07T00:50:06;9.37;;;7.20;;
6077;SDS011;3067;49.470;10.394;2022-12-07T00:52:33;9.17;;;6.43;;
6077;SDS011;3067;49.470;10.394;2022-12-07T00:55:00;10.70;;;7.67;;
6077;SDS011;3067;49.470;10.394;2022-12-07T00:57:28;10.80;;;7.03;;
6077;SDS011;3067;49.470;10.394;2022-12-07T00:59:57;8.47;;;6.90;;
6077;SDS011;3067;49.470;10.394;2022-12-07T01:02:26;11.10;;;8.00;;
6077;SDS011;3067;49.470;10.394;2022-12-07T01:04:54;9.93;;;7.10;;
6077;SDS011;3067;49.470;10.394;2022-12-07T01:07:21;11.33;;;7.60;;
6077;SDS011;3067;49.470;10.394;2022-12-07T01:09:48;10.93;;;6.97;;
6077;SDS011;3067;49.470;10.394;2022-12-07T01:12:16;12.03;;;7.77;;
6077;SDS011;3067;49.470;10.394;2022-12-07T01:14:43;9.27;;;7.07;;
6077;SDS011;3067;49.470;10.394;2022-12-07T01:17:10;8.33;;;5.93;;
6077;SDS011;3067;49.470;10.394;2022-12-07T01:19:39;10.93;;;7.60;;
6077;SDS011;3067;49.470;10.394;2022-12-07T01:22:06;12.30;;;7.97;;
6077;SDS011;3067;49.470;10.394;2022-12-07T01:24:34;10.10;;;7.40;;
6077;SDS011;3067;49.470;10.394;2022-12-07T01:27:01;12.80;;;8.10;;
6077;SDS011;3067;49.470;10.394;2022-12-07T01:29:28;15.53;;;7.83;;
6077;SDS011;3067;49.470;10.394;2022-12-07T01:31:56;13.03;;;7.93;;
6077;SDS011;3067;49.470;10.394;2022-12-07T01:34:23;12.87;;;7.90;;
6077;SDS011;3067;49.470;10.394;2022-12-07T01:36:52;13.23;;;8.50;;
6077;SDS011;3067;49.470;10.394;2022-12-07T01:39:20;12.50;;;8.30;;
6077;SDS011;3067;49.470;10.394;2022-12-07T01:41:47;11.80;;;8.27;;
6077;SDS011;3067;49.470;10.394;2022-12-07T01:44:17;13.20;;;9.10;;
6077;SDS011;3067;49.470;10.394;2022-12-07T01:46:45;14.57;;;8.30;;
6077;SDS011;3067;49.470;10.394;2022-12-07T01:49:14;12.77;;;8.80;;
6077;SDS011;3067;49.470;10.394;2022-12-07T01:51:42;16.80;;;9.97;;
6077;SDS011;3067;49.470;10.394;2022-12-07T01:54:11;13.00;;;8.73;;
6077;SDS011;3067;49.470;10.394;2022-12-07T01:56:40;17.00;;;9.50;;
6077;SDS011;3067;49.470;10.394;2022-12-07T01:59:09;14.23;;;8.57;;
6077;SDS011;3067;49.470;10.394;2022-12-07T02:01:36;16.83;;;9.37;;
6077;SDS011;3067;49.470;10.394;2022-12-07T02:04:04;13.77;;;8.43;;
6077;SDS011;3067;49.470;10.394;2022-12-07T02:06:31;17.23;;;9.50;;
6077;SDS011;3067;49.470;10.394;2022-12-07T02:08:59;15.33;;;8.80;;
6077;SDS011;3067;49.470;10.394;2022-12-07T02:11:28;13.33;;;8.60;;
6077;SDS011;3067;49.470;10.394;2022-12-07T02:13:55;16.27;;;8.90;;
6077;SDS011;3067;49.470;10.394;2022-12-07T02:16:25;16.60;;;9.57;;
6077;SDS011;3067;49.470;10.394;2022-12-07T02:18:58;16.33;;;9.10;;
6077;SDS011;3067;49.470;10.394;2022-12-07T02:21:33;15.07;;;9.10;;
6077;SDS011;3067;49.470;10.394;2022-12-07T02:24:06;17.93;;;9.43;;
6077;SDS011;3067;49.470;10.394;2022-12-07T02:26:44;15.20;;;9.57;;
6077;SDS011;3067;49.470;10.394;2022-12-07T02:29:19;16.03;;;10.10;;
6077;SDS011;3067;49.470;10.394;2022-12-07T02:31:49;17.70;;;10.00;;
6077;SDS011;3067;49.470;10.394;2022-12-07T02:34:19;15.20;;;9.10;;
6077;SDS011;3067;49.470;10.394;2022-12-07T02:36:52;15.97;;;8.60;;
6077;SDS011;3067;49.470;10.394;2022-12-07T02:39:20;14.43;;;8.90;;
6077;SDS011;3067;49.470;10.394;2022-12-07T02:41:52;13.10;;;8.67;;
6077;SDS011;3067;49.470;10.394;2022-12-07T02:44:22;13.83;;;8.30;;
6077;SDS011;3067;49.470;10.394;2022-12-07T02:46:51;17.53;;;9.63;;
6077;SDS011;3067;49.470;10.394;2022-12-07T02:49:21;14.63;;;9.00;;
6077;SDS011;3067;49.470;10.394;2022-12-07T02:51:48;16.37;;;8.30;;
6077;SDS011;3067;49.470;10.394;2022-12-07T02:54:16;13.77;;;8.40;;
6077;SDS011;3067;49.470;10.394;2022-12-07T02:56:45;15.70;;;9.10;;
6077;SDS011;3067;49.470;10.394;2022-12-07T02:59:15;17.00;;;9.20;;
6077;SDS011;3067;49.470;10.394;2022-12-07T03:01:47;14.57;;;8.63;;
6077;SDS011;3067;49.470;10.394;2022-12-07T03:04:20;16.27;;;8.23;;
6077;SDS011;3067;49.470;10.394;2022-12-07T03:06:52;14.93;;;9.13;;
6077;SDS011;3067;49.470;10.394;2022-12-07T03:09:21;17.33;;;9.57;;
6077;SDS011;3067;49.470;10.394;2022-12-07T03:11:55;15.40;;;9.40;;
6077;SDS011;3067;49.470;10.394;2022-12-07T03:14:29;17.43;;;9.60;;
6077;SDS011;3067;49.470;10.394;2022-12-07T03:17:00;14.87;;;8.33;;
6077;SDS011;3067;49.470;10.394;2022-12-07T03:19:30;15.10;;;9.20;;
6077;SDS011;3067;49.470;10.394;2022-12-07T03:21:59;17.33;;;8.40;;
6077;SDS011;3067;49.470;10.394;2022-12-07T03:24:35;18.07;;;9.37;;
6077;SDS011;3067;49.470;10.394;2022-12-07T03:27:03;18.30;;;10.37;;
6077;SDS011;3067;49.470;10.394;2022-12-07T03:29:33;19.53;;;10.50;;
6077;SDS011;3067;49.470;10.394;2022-12-07T03:32:04;17.17;;;10.10;;
6077;SDS011;3067;49.470;10.394;2022-12-07T03:34:32;18.47;;;10.33;;
6077;SDS011;3067;49.470;10.394;2022-12-07T03:37:02;17.97;;;9.47;;
6077;SDS011;3067;49.470;10.394;2022-12-07T03:39:33;16.33;;;9.80;;
6077;SDS011;3067;49.470;10.394;2022-12-07T03:42:03;17.90;;;10.40;;
6077;SDS011;3067;49.470;10.394;2022-12-07T03:44:32;16.30;;;9.60;;
6077;SDS011;3067;49.470;10.394;2022-12-07T03:47:00;17.50;;;10.10;;
6077;SDS011;3067;49.470;10.394;2022-12-07T03:49:30;19.80;;;11.30;;
6077;SDS011;3067;49.470;10.394;2022-12-07T03:52:00;19.60;;;10.97;;
6077;SDS011;3067;49.470;10.394;2022-12-07T03:54:30;22.37;;;10.70;;
6077;SDS011;3067;49.470;10.394;2022-12-07T03:56:58;23.13;;;10.87;;
6077;SDS011;3067;49.470;10.394;2022-12-07T03:59:26;17.57;;;10.17;;
6077;SDS011;3067;49.470;10.394;2022-12-07T04:01:55;20.37;;;10.63;;
6077;SDS011;3067;49.470;10.394;2022-12-07T04:04:23;18.23;;;9.70;;
6077;SDS011;3067;49.470;10.394;2022-12-07T04:06:52;21.50;;;11.27;;
6077;SDS011;3067;49.470;10.394;2022-12-07T04:09:20;25.60;;;12.60;;
6077;SDS011;3067;49.470;10.394;2022-12-07T04:11:47;21.87;;;11.87;;
6077;SDS011;3067;49.470;10.394;2022-12-07T04:14:14;20.50;;;9.57;;
6077;SDS011;3067;49.470;10.394;2022-12-07T04:16:45;20.17;;;10.60;;
6077;SDS011;3067;49.470;10.394;2022-12-07T04:19:12;26.03;;;12.10;;
6077;SDS011;3067;49.470;10.394;2022-12-07T04:21:40;56.23;;;12.30;;
6077;SDS011;3067;49.470;10.394;2022-12-07T04:24:09;24.37;;;12.60;;
6077;SDS011;3067;49.470;10.394;2022-12-07T04:26:36;15.07;;;9.10;;
6077;SDS011;3067;49.470;10.394;2022-12-07T04:29:03;23.37;;;12.57;;
6077;SDS011;3067;49.470;10.394;2022-12-07T04:31:31;20.70;;;12.30;;
6077;SDS011;3067;49.470;10.394;2022-12-07T04:33:58;23.20;;;11.90;;
6077;SDS011;3067;49.470;10.394;2022-12-07T04:36:25;22.90;;;11.90;;
6077;SDS011;3067;49.470;10.394;2022-12-07T04:38:53;20.70;;;11.90;;
6077;SDS011;3067;49.470;10.394;2022-12-07T04:41:22;21.43;;;11.40;;
6077;SDS011;3067;49.470;10.394;2022-12-07T04:43:52;25.60;;;12.00;;
6077;SDS011;3067;49.470;10.394;2022-12-07T04:46:20;21.70;;;11.07;;
6077;SDS011;3067;49.470;10.394;2022-12-07T04:48:48;23.17;;;11.70;;
6077;SDS011;3067;49.470;10.394;2022-12-07T04:51:15;24.47;;;12.43;;
6077;SDS011;3067;49.470;10.394;2022-12-07T04:53:44;20.13;;;11.07;;
6077;SDS011;3067;49.470;10.394;2022-12-07T04:56:11;20.73;;;10.93;;
6077;SDS011;3067;49.470;10.394;2022-12-07T04:58:40;23.17;;;11.67;;
6077;SDS011;3067;49.470;10.394;2022-12-07T05:01:08;22.33;;;11.80;;
6077;SDS011;3067;49.470;10.394;2022-12-07T05:03:35;23.27;;;11.10;;
6077;SDS011;3067;49.470;10.394;2022-12-07T05:06:03;20.13;;;11.37;;
6077;SDS011;3067;49.470;10.394;2022-12-07T05:08:31;19.50;;;10.93;;
6077;SDS011;3067;49.470;10.394;2022-12-07T05:10:58;22.90;;;11.03;;
6077;SDS011;3067;49.470;10.394;2022-12-07T05:13:26;19.27;;;10.97;;
6077;SDS011;3067;49.470;10.394;2022-12-07T05:15:54;19.33;;;10.27;;
6077;SDS011;3067;49.470;10.394;2022-12-07T05:18:22;20.40;;;10.50;;
6077;SDS011;3067;49.470;10.394;2022-12-07T05:20:49;19.33;;;10.87;;
6077;SDS011;3067;49.470;10.394;2022-12-07T05:23:17;22.13;;;11.10;;
6077;SDS011;3067;49.470;10.394;2022-12-07T05:25:44;21.40;;;11.23;;
6077;SDS011;3067;49.470;10.394;2022-12-07T05:28:11;22.23;;;11.53;;
6077;SDS011;3067;49.470;10.394;2022-12-07T05:30:39;21.20;;;10.97;;
6077;SDS011;3067;49.470;10.394;2022-12-07T05:33:07;20.53;;;10.03;;
6077;SDS011;3067;49.470;10.394;2022-12-07T05:35:35;22.53;;;10.83;;
6077;SDS011;3067;49.470;10.394;2022-12-07T05:38:03;23.30;;;11.50;;
6077;SDS011;3067;49.470;10.394;2022-12-07T05:40:30;23.70;;;11.37;;
6077;SDS011;3067;49.470;10.394;2022-12-07T05:42:57;22.93;;;11.33;;
6077;SDS011;3067;49.470;10.394;2022-12-07T05:45:24;21.47;;;11.33;;
6077;SDS011;3067;49.470;10.394;2022-12-07T05:47:52;21.23;;;10.93;;
6077;SDS011;3067;49.470;10.394;2022-12-07T05:50:20;22.67;;;12.57;;
6077;SDS011;3067;49.470;10.394;2022-12-07T05:52:48;21.07;;;11.57;;
6077;SDS011;3067;49.470;10.394;2022-12-07T05:55:15;23.40;;;11.20;;
6077;SDS011;3067;49.470;10.394;2022-12-07T05:57:42;19.33;;;7.70;;
6077;SDS011;3067;49.470;10.394;2022-12-07T06:00:30;19.13;;;11.17;;
6077;SDS011;3067;49.470;10.394;2022-12-07T06:02:56;25.00;;;11.37;;
6077;SDS011;3067;49.470;10.394;2022-12-07T06:05:25;19.77;;;10.10;;
6077;SDS011;3067;49.470;10.394;2022-12-07T06:07:52;26.60;;;10.60;;
6077;SDS011;3067;49.470;10.394;2022-12-07T06:10:19;21.37;;;10.93;;
6077;SDS011;3067;49.470;10.394;2022-12-07T06:12:46;20.07;;;9.40;;
6077;SDS011;3067;49.470;10.394;2022-12-07T06:15:13;25.80;;;12.30;;
6077;SDS011;3067;49.470;10.394;2022-12-07T06:17:40;25.30;;;12.20;;
6077;SDS011;3067;49.470;10.394;2022-12-07T06:20:08;24.57;;;12.23;;
6077;SDS011;3067;49.470;10.394;2022-12-07T06:22:37;17.93;;;9.60;;
6077;SDS011;3067;49.470;10.394;2022-12-07T06:25:04;12.33;;;6.10;;
6077;SDS011;3067;49.470;10.394;2022-12-07T06:27:32;25.30;;;12.13;;
6077;SDS011;3067;49.470;10.394;2022-12-07T06:30:00;23.27;;;11.90;;
6077;SDS011;3067;49.470;10.394;2022-12-07T06:32:31;22.90;;;11.80;;
6077;SDS011;3067;49.470;10.394;2022-12-07T06:34:59;26.73;;;13.70;;
6077;SDS011;3067;49.470;10.394;2022-12-07T06:37:26;25.27;;;12.30;;
6077;SDS011;3067;49.470;10.394;2022-12-07T06:39:55;30.83;;;12.43;;
6077;SDS011;3067;49.470;10.394;2022-12-07T06:42:22;26.17;;;12.70;;
6077;SDS011;3067;49.470;10.394;2022-12-07T06:44:49;26.77;;;11.70;;
6077;SDS011;3067;49.470;10.394;2022-12-07T06:47:16;23.10;;;12.43;;
6077;SDS011;3067;49.470;10.394;2022-12-07T06:49:44;20.93;;;11.47;;
6077;SDS011;3067;49.470;10.394;2022-12-07T06:52:11;27.37;;;12.33;;
6077;SDS011;3067;49.470;10.394;2022-12-07T06:54:38;23.33;;;12.37;;
6077;SDS011;3067;49.470;10.394;2022-12-07T06:57:07;22.53;;;11.60;;
6077;SDS011;3067;49.470;10.394;2022-12-07T06:59:34;25.27;;;12.70;;
6077;SDS011;3067;49.470;10.394;2022-12-07T07:02:02;24.57;;;12.17;;
6077;SDS011;3067;49.470;10.394;2022-12-07T07:04:29;24.47;;;12.17;;
6077;SDS011;3067;49.470;10.394;2022-12-07T07:06:56;24.47;;;10.80;;
6077;SDS011;3067;49.470;10.394;2022-12-07T07:09:23;20.40;;;11.20;;
6077;SDS011;3067;49.470;10.394;2022-12-07T07:11:51;22.07;;;10.33;;
6077;SDS011;3067;49.470;10.394;2022-12-07T07:14:19;21.07;;;9.73;;
6077;SDS011;3067;49.470;10.394;2022-12-07T07:16:47;20.20;;;8.47;;
6077;SDS011;3067;49.470;10.394;2022-12-07T07:19:14;17.73;;;9.80;;
6077;SDS011;3067;49.470;10.394;2022-12-07T07:21:41;16.33;;;8.50;;
6077;SDS011;3067;49.470;10.394;2022-12-07T07:24:09;21.13;;;8.60;;
6077;SDS011;3067;49.470;10.394;2022-12-07T07:26:36;19.10;;;9.97;;
6077;SDS011;3067;49.470;10.394;2022-12-07T07:29:03;17.37;;;8.83;;
6077;SDS011;3067;49.470;10.394;2022-12-07T07:31:32;17.40;;;9.00;;
6077;SDS011;3067;49.470;10.394;2022-12-07T07:34:00;16.97;;;8.43;;
6077;SDS011;3067;49.470;10.394;2022-12-07T07:36:27;18.73;;;8.67;;
6077;SDS011;3067;49.470;10.394;2022-12-07T07:38:55;14.63;;;8.33;;
6077;SDS011;3067;49.470;10.394;2022-12-07T07:41:22;7.87;;;5.93;;
6077;SDS011;3067;49.470;10.394;2022-12-07T07:43:50;12.67;;;7.07;;
6077;SDS011;3067;49.470;10.394;2022-12-07T07:46:17;15.70;;;8.90;;
6077;SDS011;3067;49.470;10.394;2022-12-07T07:48:46;12.63;;;7.57;;
6077;SDS011;3067;49.470;10.394;2022-12-07T07:51:13;14.50;;;8.10;;
6077;SDS011;3067;49.470;10.394;2022-12-07T07:53:40;14.03;;;8.63;;
6077;SDS011;3067;49.470;10.394;2022-12-07T07:56:07;16.60;;;9.50;;
6077;SDS011;3067;49.470;10.394;2022-12-07T07:58:35;15.50;;;9.40;;
6077;SDS011;3067;49.470;10.394;2022-12-07T08:01:04;16.23;;;8.60;;
6077;SDS011;3067;49.470;10.394;2022-12-07T08:03:32;13.77;;;8.27;;
6077;SDS011;3067;49.470;10.394;2022-12-07T08:06:01;14.70;;;8.80;;
6077;SDS011;3067;49.470;10.394;2022-12-07T08:08:28;10.93;;;7.00;;
6077;SDS011;3067;49.470;10.394;2022-12-07T08:22:53;17.47;;;10.33;;
6077;SDS011;3067;49.470;10.394;2022-12-07T08:25:21;23.70;;;8.90;;
6077;SDS011;3067;49.470;10.394;2022-12-07T08:27:48;13.40;;;8.20;;
6077;SDS011;3067;49.470;10.394;2022-12-07T08:30:16;14.97;;;9.03;;
6077;SDS011;3067;49.470;10.394;2022-12-07T08:32:43;14.77;;;8.50;;
6077;SDS011;3067;49.470;10.394;2022-12-07T08:35:11;16.20;;;8.20;;
6077;SDS011;3067;49.470;10.394;2022-12-07T08:37:39;14.43;;;9.00;;
6077;SDS011;3067;49.470;10.394;2022-12-07T08:40:08;14.20;;;9.27;;
6077;SDS011;3067;49.470;10.394;2022-12-07T08:42:36;14.83;;;8.87;;
6077;SDS011;3067;49.470;10.394;2022-12-07T08:45:05;13.83;;;8.07;;
6077;SDS011;3067;49.470;10.394;2022-12-07T08:47:33;14.73;;;8.53;;
6077;SDS011;3067;49.470;10.394;2022-12-07T08:50:00;10.90;;;8.10;;
6077;SDS011;3067;49.470;10.394;2022-12-07T08:52:29;16.00;;;9.00;;
6077;SDS011;3067;49.470;10.394;2022-12-07T08:54:56;13.27;;;8.20;;
6077;SDS011;3067;49.470;10.394;2022-12-07T08:57:25;14.70;;;8.50;;
6077;SDS011;3067;49.470;10.394;2022-12-07T08:59:53;13.00;;;8.57;;
6077;SDS011;3067;49.470;10.394;2022-12-07T09:02:21;16.10;;;8.90;;
6077;SDS011;3067;49.470;10.394;2022-12-07T09:04:48;12.50;;;8.20;;
6077;SDS011;3067;49.470;10.394;2022-12-07T09:07:15;12.53;;;7.30;;
6077;SDS011;3067;49.470;10.394;2022-12-07T09:09:43;11.03;;;6.90;;
6077;SDS011;3067;49.470;10.394;2022-12-07T09:12:10;10.80;;;8.03;;
6077;SDS011;3067;49.470;10.394;2022-12-07T09:14:39;11.70;;;7.80;;
6077;SDS011;3067;49.470;10.394;2022-12-07T09:17:06;15.87;;;8.10;;
6077;SDS011;3067;49.470;10.394;2022-12-07T09:19:34;11.43;;;7.13;;
6077;SDS011;3067;49.470;10.394;2022-12-07T09:22:01;13.83;;;7.37;;
6077;SDS011;3067;49.470;10.394;2022-12-07T09:24:29;11.20;;;7.60;;
6077;SDS011;3067;49.470;10.394;2022-12-07T09:26:57;12.47;;;7.40;;
6077;SDS011;3067;49.470;10.394;2022-12-07T09:29:24;12.07;;;7.87;;
6077;SDS011;3067;49.470;10.394;2022-12-07T09:31:53;13.40;;;7.57;;
6077;SDS011;3067;49.470;10.394;2022-12-07T09:34:20;14.20;;;8.07;;
6077;SDS011;3067;49.470;10.394;2022-12-07T09:36:48;10.90;;;7.37;;
6077;SDS011;3067;49.470;10.394;2022-12-07T09:39:15;13.57;;;7.83;;
6077;SDS011;3067;49.470;10.394;2022-12-07T09:41:43;12.87;;;7.70;;
6077;SDS011;3067;49.470;10.394;2022-12-07T09:44:12;11.27;;;7.17;;
6077;SDS011;3067;49.470;10.394;2022-12-07T09:46:41;11.43;;;7.13;;
6077;SDS011;3067;49.470;10.394;2022-12-07T09:49:11;10.40;;;6.87;;
6077;SDS011;3067;49.470;10.394;2022-12-07T09:51:39;11.63;;;8.00;;
6077;SDS011;3067;49.470;10.394;2022-12-07T09:54:07;12.00;;;7.67;;
6077;SDS011;3067;49.470;10.394;2022-12-07T09:56:35;11.00;;;7.23;;
6077;SDS011;3067;49.470;10.394;2022-12-07T09:59:02;13.53;;;8.50;;
6077;SDS011;3067;49.470;10.394;2022-12-07T10:01:31;13.17;;;8.60;;
6077;SDS011;3067;49.470;10.394;2022-12-07T10:04:00;12.27;;;7.90;;
6077;SDS011;3067;49.470;10.394;2022-12-07T10:06:30;16.10;;;9.40;;
6077;SDS011;3067;49.470;10.394;2022-12-07T10:08:57;13.93;;;8.57;;
6077;SDS011;3067;49.470;10.394;2022-12-07T10:11:25;17.10;;;9.00;;
6077;SDS011;3067;49.470;10.394;2022-12-07T10:13:52;14.20;;;7.80;;
6077;SDS011;3067;49.470;10.394;2022-12-07T10:16:30;12.07;;;6.70;;
6077;SDS011;3067;49.470;10.394;2022-12-07T10:18:59;14.80;;;7.83;;
6077;SDS011;3067;49.470;10.394;2022-12-07T10:21:47;14.07;;;7.53;;
6077;SDS011;3067;49.470;10.394;2022-12-07T10:24:26;11.70;;;7.00;;
6077;SDS011;3067;49.470;10.394;2022-12-07T10:26:53;14.50;;;8.43;;
6077;SDS011;3067;49.470;10.394;2022-12-07T10:29:21;16.50;;;8.80;;
6077;SDS011;3067;49.470;10.394;2022-12-07T10:31:50;17.47;;;9.20;;
6077;SDS011;3067;49.470;10.394;2022-12-07T10:34:20;15.57;;;8.97;;
6077;SDS011;3067;49.470;10.394;2022-12-07T10:36:51;14.73;;;8.97;;
6077;SDS011;3067;49.470;10.394;2022-12-07T10:39:18;14.30;;;9.27;;
6077;SDS011;3067;49.470;10.394;2022-12-07T10:41:53;13.13;;;8.23;;
6077;SDS011;3067;49.470;10.394;2022-12-07T10:44:22;15.00;;;7.90;;
6077;SDS011;3067;49.470;10.394;2022-12-07T10:47:01;14.93;;;8.83;;
6077;SDS011;3067;49.470;10.394;2022-12-07T10:49:37;15.60;;;9.53;;
6077;SDS011;3067;49.470;10.394;2022-12-07T10:52:09;15.90;;;9.90;;
6077;SDS011;3067;49.470;10.394;2022-12-07T10:54:40;15.83;;;9.83;;
6077;SDS011;3067;49.470;10.394;2022-12-07T10:57:16;16.37;;;9.90;;
6077;SDS011;3067;49.470;10.394;2022-12-07T10:59:53;13.83;;;8.40;;
6077;SDS011;3067;49.470;10.394;2022-12-07T11:02:24;18.77;;;10.47;;
6077;SDS011;3067;49.470;10.394;2022-12-07T11:04:59;14.93;;;9.27;;
6077;SDS011;3067;49.470;10.394;2022-12-07T11:07:34;13.33;;;7.50;;
6077;SDS011;3067;49.470;10.394;2022-12-07T11:10:04;15.60;;;9.13;;
6077;SDS011;3067;49.470;10.394;2022-12-07T11:12:36;17.90;;;9.50;;
6077;SDS011;3067;49.470;10.394;2022-12-07T11:15:11;13.53;;;8.93;;
6077;SDS011;3067;49.470;10.394;2022-12-07T11:17:43;14.37;;;9.10;;
6077;SDS011;3067;49.470;10.394;2022-12-07T11:20:13;17.07;;;9.13;;
6077;SDS011;3067;49.470;10.394;2022-12-07T11:22:45;19.83;;;8.90;;
6077;SDS011;3067;49.470;10.394;2022-12-07T11:25:16;18.70;;;10.00;;
6077;SDS011;3067;49.470;10.394;2022-12-07T11:27:46;15.47;;;9.20;;
6077;SDS011;3067;49.470;10.394;2022-12-07T11:30:16;14.30;;;9.17;;
6077;SDS011;3067;49.470;10.394;2022-12-07T11:35:40;19.67;;;10.37;;
6077;SDS011;3067;49.470;10.394;2022-12-07T11:38:12;16.60;;;9.40;;
6077;SDS011;3067;49.470;10.394;2022-12-07T11:40:40;15.27;;;9.40;;
6077;SDS011;3067;49.470;10.394;2022-12-07T11:43:12;15.17;;;8.87;;
6077;SDS011;3067;49.470;10.394;2022-12-07T11:45:41;15.10;;;9.50;;
6077;SDS011;3067;49.470;10.394;2022-12-07T11:48:10;15.57;;;9.13;;
6077;SDS011;3067;49.470;10.394;2022-12-07T11:50:39;10.57;;;6.70;;
6077;SDS011;3067;49.470;10.394;2022-12-07T11:53:10;17.80;;;9.60;;
6077;SDS011;3067;49.470;10.394;2022-12-07T11:55:42;12.70;;;8.00;;
6077;SDS011;3067;49.470;10.394;2022-12-07T11:58:14;16.13;;;9.10;;
6077;SDS011;3067;49.470;10.394;2022-12-07T12:00:46;17.20;;;9.83;;
6077;SDS011;3067;49.470;10.394;2022-12-07T12:03:15;19.40;;;9.77;;
6077;SDS011;3067;49.470;10.394;2022-12-07T12:05:43;14.87;;;9.20;;
6077;SDS011;3067;49.470;10.394;2022-12-07T12:08:12;17.10;;;9.57;;
6077;SDS011;3067;49.470;10.394;2022-12-07T12:10:45;21.83;;;10.57;;
6077;SDS011;3067;49.470;10.394;2022-12-07T12:16:09;13.97;;;7.97;;
6077;SDS011;3067;49.470;10.394;2022-12-07T12:18:52;14.73;;;8.50;;
6077;SDS011;3067;49.470;10.394;2022-12-07T12:21:26;15.97;;;8.70;;
6077;SDS011;3067;49.470;10.394;2022-12-07T12:23:55;12.90;;;8.30;;
6077;SDS011;3067;49.470;10.394;2022-12-07T12:26:26;18.77;;;9.03;;
6077;SDS011;3067;49.470;10.394;2022-12-07T12:28:54;14.27;;;8.77;;
6077;SDS011;3067;49.470;10.394;2022-12-07T12:31:34;13.13;;;7.70;;
6077;SDS011;3067;49.470;10.394;2022-12-07T12:34:10;14.43;;;7.83;;
6077;SDS011;3067;49.470;10.394;2022-12-07T12:36:53;12.80;;;7.00;;
6077;SDS011;3067;49.470;10.394;2022-12-07T12:39:20;9.57;;;6.70;;
6077;SDS011;3067;49.470;10.394;2022-12-07T12:44:39;17.27;;;8.83;;
6077;SDS011;3067;49.470;10.394;2022-12-07T13:00:42;16.03;;;9.03;;
6077;SDS011;3067;49.470;10.394;2022-12-07T13:03:26;21.20;;;9.90;;
6077;SDS011;3067;49.470;10.394;2022-12-07T13:08:36;13.40;;;7.40;;
6077;SDS011;3067;49.470;10.394;2022-12-07T13:11:17;15.03;;;9.40;;
6077;SDS011;3067;49.470;10.394;2022-12-07T13:13:45;13.57;;;8.10;;
6077;SDS011;3067;49.470;10.394;2022-12-07T13:18:59;14.10;;;8.30;;
6077;SDS011;3067;49.470;10.394;2022-12-07T13:21:42;16.00;;;9.40;;
6077;SDS011;3067;49.470;10.394;2022-12-07T13:24:10;16.93;;;8.60;;
6077;SDS011;3067;49.470;10.394;2022-12-07T13:26:39;14.20;;;8.87;;
6077;SDS011;3067;49.470;10.394;2022-12-07T13:29:10;14.63;;;8.80;;
6077;SDS011;3067;49.470;10.394;2022-12-07T13:31:38;24.87;;;9.27;;
6077;SDS011;3067;49.470;10.394;2022-12-07T13:36:50;17.40;;;8.90;;
6077;SDS011;3067;49.470;10.394;2022-12-07T13:39:18;16.33;;;8.70;;
6077;SDS011;3067;49.470;10.394;2022-12-07T13:41:49;19.37;;;10.03;;
6077;SDS011;3067;49.470;10.394;2022-12-07T13:44:17;17.17;;;9.73;;
6077;SDS011;3067;49.470;10.394;2022-12-07T13:46:46;12.27;;;8.43;;
6077;SDS011;3067;49.470;10.394;2022-12-07T13:49:20;14.60;;;8.17;;
6077;SDS011;3067;49.470;10.394;2022-12-07T13:51:48;13.30;;;8.13;;
6077;SDS011;3067;49.470;10.394;2022-12-07T13:54:17;13.50;;;8.50;;
6077;SDS011;3067;49.470;10.394;2022-12-07T13:56:46;23.70;;;7.90;;
6077;SDS011;3067;49.470;10.394;2022-12-07T13:59:16;15.23;;;8.60;;
6077;SDS011;3067;49.470;10.394;2022-12-07T14:01:44;12.53;;;7.77;;
6077;SDS011;3067;49.470;10.394;2022-12-07T14:04:16;14.87;;;9.30;;
6077;SDS011;3067;49.470;10.394;2022-12-07T14:06:46;11.87;;;8.37;;
6077;SDS011;3067;49.470;10.394;2022-12-07T14:09:18;14.23;;;8.50;;
6077;SDS011;3067;49.470;10.394;2022-12-07T14:11:46;16.77;;;9.00;;
6077;SDS011;3067;49.470;10.394;2022-12-07T14:14:16;22.13;;;9.07;;
6077;SDS011;3067;49.470;10.394;2022-12-07T14:16:54;16.80;;;8.20;;
6077;SDS011;3067;49.470;10.394;2022-12-07T14:22:06;17.53;;;8.30;;
6077;SDS011;3067;49.470;10.394;2022-12-07T14:24:41;11.90;;;6.80;;
6077;SDS011;3067;49.470;10.394;2022-12-07T14:27:16;18.80;;;9.40;;
6077;SDS011;3067;49.470;10.394;2022-12-07T14:29:43;19.00;;;9.10;;
6077;SDS011;3067;49.470;10.394;2022-12-07T14:32:17;17.57;;;8.77;;
6077;SDS011;3067;49.470;10.394;2022-12-07T14:34:55;13.70;;;8.50;;
6077;SDS011;3067;49.470;10.394;2022-12-07T14:37:22;16.27;;;8.73;;
6077;SDS011;3067;49.470;10.394;2022-12-07T14:39:51;15.47;;;8.20;;
6077;SDS011;3067;49.470;10.394;2022-12-07T14:42:18;11.37;;;7.33;;
6077;SDS011;3067;49.470;10.394;2022-12-07T14:44:46;10.63;;;6.60;;
6077;SDS011;3067;49.470;10.394;2022-12-07T14:47:13;11.73;;;7.63;;
6077;SDS011;3067;49.470;10.394;2022-12-07T14:49:41;12.10;;;6.90;;
6077;SDS011;3067;49.470;10.394;2022-12-07T14:52:11;15.70;;;8.53;;
6077;SDS011;3067;49.470;10.394;2022-12-07T14:54:40;15.43;;;8.50;;
6077;SDS011;3067;49.470;10.394;2022-12-07T14:57:10;14.80;;;9.40;;
6077;SDS011;3067;49.470;10.394;2022-12-07T14:59:37;14.83;;;8.67;;
6077;SDS011;3067;49.470;10.394;2022-12-07T15:02:05;17.03;;;9.83;;
6077;SDS011;3067;49.470;10.394;2022-12-07T15:04:32;16.60;;;9.37;;
6077;SDS011;3067;49.470;10.394;2022-12-07T15:07:01;14.30;;;8.50;;
6077;SDS011;3067;49.470;10.394;2022-12-07T15:09:28;12.73;;;7.77;;
6077;SDS011;3067;49.470;10.394;2022-12-07T15:11:55;17.20;;;9.00;;
6077;SDS011;3067;49.470;10.394;2022-12-07T15:14:24;14.13;;;8.80;;
6077;SDS011;3067;49.470;10.394;2022-12-07T15:16:51;11.90;;;7.30;;
6077;SDS011;3067;49.470;10.394;2022-12-07T15:19:19;13.57;;;9.17;;
6077;SDS011;3067;49.470;10.394;2022-12-07T15:21:48;14.40;;;7.80;;
6077;SDS011;3067;49.470;10.394;2022-12-07T15:24:15;13.20;;;9.07;;
6077;SDS011;3067;49.470;10.394;2022-12-07T15:26:43;14.00;;;8.80;;
6077;SDS011;3067;49.470;10.394;2022-12-07T15:29:10;16.23;;;8.47;;
6077;SDS011;3067;49.470;10.394;2022-12-07T15:31:41;16.70;;;8.90;;
6077;SDS011;3067;49.470;10.394;2022-12-07T15:34:09;14.17;;;8.50;;
6077;SDS011;3067;49.470;10.394;2022-12-07T15:36:36;10.57;;;6.60;;
6077;SDS011;3067;49.470;10.394;2022-12-07T15:39:03;16.50;;;8.13;;
6077;SDS011;3067;49.470;10.394;2022-12-07T15:41:30;12.60;;;8.10;;